createdAt,value
2022-10-08T00:00:57.000Z,80
2022-10-08T00:02:14.000Z,80.7
2022-10-08T00:03:30.000Z,80.8
2022-10-08T00:04:46.000Z,80.7
2022-10-08T00:06:03.000Z,80.4
2022-10-08T00:07:19.000Z,80.3
2022-10-08T00:08:35.000Z,80.2
2022-10-08T00:09:50.000Z,80.4
2022-10-08T00:11:07.000Z,80.5
2022-10-08T00:12:23.000Z,80.7
2022-10-08T00:13:39.000Z,80.5
2022-10-08T00:14:56.000Z,80.4
2022-10-08T00:16:12.000Z,80.6
2022-10-08T00:17:28.000Z,80.9
2022-10-08T00:20:01.000Z,80.9
2022-10-08T00:21:17.000Z,80.9
2022-10-08T00:22:33.000Z,80.9
2022-10-08T00:25:06.000Z,81.1
2022-10-08T00:26:21.000Z,81.2
2022-10-08T00:27:37.000Z,81.3
2022-10-08T00:28:54.000Z,81.7
2022-10-08T00:30:10.000Z,82.3
2022-10-08T00:31:26.000Z,82.3
2022-10-08T00:32:43.000Z,82
2022-10-08T00:33:59.000Z,81.8
2022-10-08T00:35:15.000Z,81.7
2022-10-08T00:36:31.000Z,81.6
2022-10-08T00:37:48.000Z,81.5
2022-10-08T00:39:04.000Z,81.4
2022-10-08T00:40:20.000Z,81.2
2022-10-08T00:41:37.000Z,81
2022-10-08T00:42:52.000Z,80.8
2022-10-08T00:44:08.000Z,80.8
2022-10-08T00:45:25.000Z,80.6
2022-10-08T00:46:41.000Z,80.4
2022-10-08T00:47:57.000Z,80.2
2022-10-08T00:49:13.000Z,80
2022-10-08T00:50:30.000Z,80.2
2022-10-08T00:51:46.000Z,80.3
2022-10-08T00:53:02.000Z,80.5
2022-10-08T00:54:19.000Z,80.7
2022-10-08T00:55:35.000Z,80.4
2022-10-08T00:56:51.000Z,80.4
2022-10-08T00:58:07.000Z,80.3
2022-10-08T00:59:23.000Z,80.5
2022-10-08T01:00:39.000Z,80.6
2022-10-08T01:01:55.000Z,80.7
2022-10-08T01:03:12.000Z,80.5
2022-10-08T01:04:28.000Z,80.6
2022-10-08T01:05:44.000Z,80.7
2022-10-08T01:06:59.000Z,80.7
2022-10-08T01:08:16.000Z,81
2022-10-08T01:09:32.000Z,81.2
2022-10-08T01:10:48.000Z,81.2
2022-10-08T01:12:05.000Z,81
2022-10-08T01:13:21.000Z,81.4
2022-10-08T01:15:53.000Z,81.5
2022-10-08T01:17:10.000Z,81.6
2022-10-08T01:18:26.000Z,82
2022-10-08T01:19:42.000Z,81.9
2022-10-08T01:20:59.000Z,81.9
2022-10-08T01:22:15.000Z,81.8
2022-10-08T01:23:30.000Z,81.8
2022-10-08T01:24:46.000Z,81.6
2022-10-08T01:26:03.000Z,81.4
2022-10-08T01:28:35.000Z,81
2022-10-08T01:29:52.000Z,81.4
2022-10-08T01:31:08.000Z,81.5
2022-10-08T01:32:24.000Z,81.4
2022-10-08T01:33:40.000Z,81.7
2022-10-08T01:34:57.000Z,81.7
2022-10-08T01:36:13.000Z,81.9
2022-10-08T01:37:29.000Z,82.5
2022-10-08T01:38:46.000Z,83
2022-10-08T01:41:17.000Z,82.5
2022-10-08T01:42:33.000Z,82.1
2022-10-08T01:43:48.000Z,81.9
2022-10-08T01:45:04.000Z,81.7
2022-10-08T01:46:20.000Z,81.7
2022-10-08T01:47:37.000Z,82.2
2022-10-08T01:48:53.000Z,82.4
2022-10-08T01:50:09.000Z,82.5
2022-10-08T01:51:26.000Z,82.5
2022-10-08T01:52:42.000Z,82.4
2022-10-08T01:53:58.000Z,82.3
2022-10-08T01:55:14.000Z,82.4
2022-10-08T01:56:30.000Z,82.3
2022-10-08T01:57:45.000Z,82
2022-10-08T01:59:01.000Z,81.8
2022-10-08T02:00:18.000Z,82.1
2022-10-08T02:01:34.000Z,82.2
2022-10-08T02:02:50.000Z,82.1
2022-10-08T02:04:06.000Z,81.9
2022-10-08T02:06:39.000Z,82.3
2022-10-08T02:07:55.000Z,82.3
2022-10-08T02:09:12.000Z,82.2
2022-10-08T02:10:28.000Z,82.2
2022-10-08T02:11:44.000Z,81.8
2022-10-08T02:13:00.000Z,81.9
2022-10-08T02:14:16.000Z,82
2022-10-08T02:15:32.000Z,82
2022-10-08T02:16:48.000Z,81.8
2022-10-08T02:18:05.000Z,81.8
2022-10-08T02:19:21.000Z,82
2022-10-08T02:20:37.000Z,81.9
2022-10-08T02:21:54.000Z,81.6
2022-10-08T02:23:10.000Z,82
2022-10-08T02:24:26.000Z,82.6
2022-10-08T02:25:42.000Z,82.8
2022-10-08T02:26:59.000Z,83
2022-10-08T02:28:15.000Z,83.3
2022-10-08T02:29:31.000Z,83.5
2022-10-08T02:32:03.000Z,83
2022-10-08T02:33:19.000Z,82.9
2022-10-08T02:34:35.000Z,82.9
2022-10-08T02:35:52.000Z,82.9
2022-10-08T02:37:08.000Z,82.8
2022-10-08T02:38:24.000Z,83
2022-10-08T02:39:41.000Z,82.8
2022-10-08T02:40:57.000Z,82.9
2022-10-08T02:42:13.000Z,82.8
2022-10-08T02:43:29.000Z,82.4
2022-10-08T02:44:46.000Z,82.6
2022-10-08T02:46:02.000Z,82.6
2022-10-08T02:47:17.000Z,82.5
2022-10-08T02:48:34.000Z,82.3
2022-10-08T02:49:50.000Z,82
2022-10-08T02:51:06.000Z,81.8
2022-10-08T02:52:22.000Z,81.6
2022-10-08T02:53:39.000Z,81.4
2022-10-08T02:54:55.000Z,81.4
2022-10-08T02:57:28.000Z,81.7
2022-10-08T02:58:44.000Z,82
2022-10-08T03:00:00.000Z,82.1
2022-10-08T03:01:16.000Z,82.2
2022-10-08T03:02:33.000Z,82.3
2022-10-08T03:03:48.000Z,82.3
2022-10-08T03:05:04.000Z,82.2
2022-10-08T03:06:21.000Z,82.2
2022-10-08T03:07:37.000Z,82.3
2022-10-08T03:08:53.000Z,82.2
2022-10-08T03:11:26.000Z,82.3
2022-10-08T03:12:42.000Z,82
2022-10-08T03:13:58.000Z,82
2022-10-08T03:15:15.000Z,81.8
2022-10-08T03:16:31.000Z,82.3
2022-10-08T03:17:47.000Z,82.7
2022-10-08T03:19:03.000Z,82.9
2022-10-08T03:20:19.000Z,82.9
2022-10-08T03:22:51.000Z,83.2
2022-10-08T03:24:07.000Z,83.3
2022-10-08T03:25:22.000Z,83.3
2022-10-08T03:26:38.000Z,83.3
2022-10-08T03:27:55.000Z,83.3
2022-10-08T03:29:11.000Z,83.5
2022-10-08T03:30:27.000Z,83.7
2022-10-08T03:31:43.000Z,84.4
2022-10-08T03:33:00.000Z,85.2
2022-10-08T03:35:32.000Z,86
2022-10-08T03:36:49.000Z,86.2
2022-10-08T03:38:05.000Z,86.6
2022-10-08T03:39:21.000Z,87.1
2022-10-08T03:40:37.000Z,87.4
2022-10-08T03:41:53.000Z,87.8
2022-10-08T03:43:09.000Z,88.3
2022-10-08T03:44:25.000Z,88.4
2022-10-08T03:45:42.000Z,88.3
2022-10-08T03:46:58.000Z,88.6
2022-10-08T03:48:14.000Z,88.8
2022-10-08T03:49:30.000Z,89.4
2022-10-08T03:50:47.000Z,89.8
2022-10-08T03:52:02.000Z,90.2
2022-10-08T03:53:17.000Z,90.7
2022-10-08T03:54:34.000Z,90.9
2022-10-08T03:55:50.000Z,91.2
2022-10-08T03:57:06.000Z,91.3
2022-10-08T03:58:22.000Z,92
2022-10-08T03:59:39.000Z,92.6
2022-10-08T04:00:55.000Z,92.8
2022-10-08T04:03:28.000Z,92.7
2022-10-08T04:04:44.000Z,93.1
2022-10-08T04:06:00.000Z,93.5
2022-10-08T04:07:17.000Z,93.9
2022-10-08T04:08:33.000Z,94.2
2022-10-08T04:09:48.000Z,94.2
2022-10-08T04:11:04.000Z,94.4
2022-10-08T04:13:37.000Z,94.7
2022-10-08T04:14:52.000Z,95.1
2022-10-08T04:16:08.000Z,94.9
2022-10-08T04:17:24.000Z,95.1
2022-10-08T04:18:40.000Z,95.2
2022-10-08T04:21:13.000Z,95.4
2022-10-08T04:22:29.000Z,95.3
2022-10-08T04:23:45.000Z,95.4
2022-10-08T04:25:02.000Z,95.2
2022-10-08T04:26:18.000Z,95.5
2022-10-08T04:27:34.000Z,95.9
2022-10-08T04:28:50.000Z,96
2022-10-08T04:30:07.000Z,96.2
2022-10-08T04:31:23.000Z,96.1
2022-10-08T04:32:38.000Z,95.9
2022-10-08T04:33:55.000Z,96.2
2022-10-08T04:35:11.000Z,96.5
2022-10-08T04:36:27.000Z,96.6
2022-10-08T04:37:43.000Z,96.7
2022-10-08T04:39:00.000Z,96.2
2022-10-08T04:40:16.000Z,96.2
2022-10-08T04:41:32.000Z,96.3
2022-10-08T04:42:48.000Z,96.4
2022-10-08T04:44:03.000Z,96
2022-10-08T04:45:19.000Z,96.4
2022-10-08T04:46:36.000Z,96.7
2022-10-08T04:47:52.000Z,97
2022-10-08T04:49:08.000Z,96.7
2022-10-08T04:51:41.000Z,96.8
2022-10-08T04:52:57.000Z,97
2022-10-08T04:54:13.000Z,96.9
2022-10-08T04:55:30.000Z,96.8
2022-10-08T04:56:46.000Z,97
2022-10-08T04:58:02.000Z,97
2022-10-08T04:59:18.000Z,96.9
2022-10-08T05:00:34.000Z,97
2022-10-08T05:01:50.000Z,96.9
2022-10-08T05:04:23.000Z,96.9
2022-10-08T05:05:38.000Z,97.1
2022-10-08T05:06:53.000Z,97.3
2022-10-08T05:08:09.000Z,97
2022-10-08T05:09:26.000Z,97.2
2022-10-08T05:10:42.000Z,97.3
2022-10-08T05:11:58.000Z,97.3
2022-10-08T05:13:15.000Z,97.3
2022-10-08T05:14:31.000Z,97.3
2022-10-08T05:15:47.000Z,97.2
2022-10-08T05:17:03.000Z,96.7
2022-10-08T05:18:20.000Z,96.6
2022-10-08T05:20:51.000Z,97.3
2022-10-08T05:22:07.000Z,97.5
2022-10-08T05:23:23.000Z,97.3
2022-10-08T05:24:39.000Z,97.5
2022-10-08T05:25:55.000Z,97.5
2022-10-08T05:27:12.000Z,97.1
2022-10-08T05:28:28.000Z,97.3
2022-10-08T05:29:44.000Z,97.5
2022-10-08T05:31:00.000Z,97.5
2022-10-08T05:33:33.000Z,97.5
2022-10-08T05:34:49.000Z,97.3
2022-10-08T05:36:05.000Z,97.3
2022-10-08T05:37:21.000Z,97.3
2022-10-08T05:38:37.000Z,97.3
2022-10-08T05:39:53.000Z,97.3
2022-10-08T05:42:25.000Z,97.2
2022-10-08T05:43:41.000Z,97
2022-10-08T05:44:56.000Z,96.9
2022-10-08T05:46:12.000Z,97
2022-10-08T05:47:28.000Z,96.8
2022-10-08T05:48:45.000Z,96.9
2022-10-08T05:50:01.000Z,96.9
2022-10-08T05:51:17.000Z,97
2022-10-08T05:52:33.000Z,97
2022-10-08T05:53:49.000Z,96.9
2022-10-08T05:55:06.000Z,96.9
2022-10-08T05:56:22.000Z,97.2
2022-10-08T05:57:37.000Z,97.2
2022-10-08T05:58:52.000Z,97.3
2022-10-08T06:00:09.000Z,97.5
2022-10-08T06:01:25.000Z,97.5
2022-10-08T06:02:41.000Z,97.5
2022-10-08T06:03:57.000Z,97.5
2022-10-08T06:05:14.000Z,97.5
2022-10-08T06:06:30.000Z,97.5
2022-10-08T06:07:46.000Z,97.6
2022-10-08T06:09:02.000Z,97.7
2022-10-08T06:10:19.000Z,97.8
2022-10-08T06:11:34.000Z,97.8
2022-10-08T06:12:50.000Z,97.9
2022-10-08T06:14:06.000Z,97.8
2022-10-08T06:15:23.000Z,98
2022-10-08T06:16:39.000Z,98
2022-10-08T06:17:55.000Z,98.1
2022-10-08T06:20:28.000Z,98
2022-10-08T06:21:44.000Z,98.1
2022-10-08T06:25:32.000Z,98
2022-10-08T06:26:49.000Z,97.8
2022-10-08T06:28:05.000Z,97.7
2022-10-08T06:29:20.000Z,97.6
2022-10-08T06:30:35.000Z,97.6
2022-10-08T06:31:52.000Z,97.5
2022-10-08T06:33:08.000Z,97.3
2022-10-08T06:34:24.000Z,97.4
2022-10-08T06:35:40.000Z,97.2
2022-10-08T06:36:57.000Z,97.1
2022-10-08T06:38:13.000Z,97
2022-10-08T06:39:29.000Z,97
2022-10-08T06:40:45.000Z,97.2
2022-10-08T06:42:02.000Z,97.2
2022-10-08T06:43:17.000Z,97.2
2022-10-08T06:44:32.000Z,96.8
2022-10-08T06:45:48.000Z,96.9
2022-10-08T06:47:05.000Z,96.7
2022-10-08T06:48:21.000Z,96.7
2022-10-08T06:49:37.000Z,96.7
2022-10-08T06:50:53.000Z,96.5
2022-10-08T06:52:09.000Z,96.3
2022-10-08T06:53:26.000Z,96.5
2022-10-08T06:54:42.000Z,96.2
2022-10-08T06:55:58.000Z,96.3
2022-10-08T06:58:31.000Z,96.5
2022-10-08T06:59:47.000Z,96.3
2022-10-08T07:01:02.000Z,96.1
2022-10-08T07:02:18.000Z,96
2022-10-08T07:03:35.000Z,95.9
2022-10-08T07:04:51.000Z,95.8
2022-10-08T07:06:07.000Z,96.1
2022-10-08T07:07:23.000Z,96.2
2022-10-08T07:08:40.000Z,96.1
2022-10-08T07:09:56.000Z,96.2
2022-10-08T07:12:28.000Z,96.3
2022-10-08T07:13:44.000Z,96.2
2022-10-08T07:15:01.000Z,96.1
2022-10-08T07:16:17.000Z,96.2
2022-10-08T07:17:32.000Z,96.5
2022-10-08T07:18:48.000Z,96.2
2022-10-08T07:20:05.000Z,96.1
2022-10-08T07:21:21.000Z,96.1
2022-10-08T07:22:37.000Z,95.8
2022-10-08T07:23:53.000Z,95.8
2022-10-08T07:25:10.000Z,95.5
2022-10-08T07:26:26.000Z,95.5
2022-10-08T07:27:42.000Z,95.4
2022-10-08T07:28:58.000Z,95.1
2022-10-08T07:30:15.000Z,95.1
2022-10-08T07:31:31.000Z,94.9
2022-10-08T07:32:47.000Z,94.8
2022-10-08T07:34:02.000Z,94.5
2022-10-08T07:35:18.000Z,94.5
2022-10-08T07:36:35.000Z,94.3
2022-10-08T07:37:51.000Z,94.3
2022-10-08T07:39:07.000Z,94.3
2022-10-08T07:40:23.000Z,93.9
2022-10-08T07:41:40.000Z,93.1
2022-10-08T07:42:56.000Z,92.2
2022-10-08T07:44:12.000Z,91.7
2022-10-08T07:45:28.000Z,90.7
2022-10-08T07:46:45.000Z,90.9
2022-10-08T07:49:17.000Z,90.8
2022-10-08T07:50:32.000Z,90.3
2022-10-08T07:51:49.000Z,90.4
2022-10-08T07:53:05.000Z,89.6
2022-10-08T07:54:21.000Z,89.7
2022-10-08T07:55:37.000Z,89.2
2022-10-08T07:56:53.000Z,89.3
2022-10-08T07:58:10.000Z,87.7
2022-10-08T07:59:26.000Z,87.9
2022-10-08T08:01:58.000Z,87.2
2022-10-08T08:03:15.000Z,87
2022-10-08T08:04:31.000Z,86.5
2022-10-08T08:05:47.000Z,86.3
2022-10-08T08:08:19.000Z,86.1
2022-10-08T08:09:34.000Z,86.2
2022-10-08T08:10:49.000Z,85.8
2022-10-08T08:12:05.000Z,83.7
2022-10-08T08:14:38.000Z,76.6
2022-10-08T08:15:54.000Z,76.5
2022-10-08T08:17:10.000Z,77.3
2022-10-08T08:18:26.000Z,78.2
2022-10-08T08:19:43.000Z,76.5
2022-10-08T08:20:59.000Z,74.1
2022-10-08T08:22:15.000Z,75.5
2022-10-08T08:24:48.000Z,80.8
2022-10-08T08:26:03.000Z,80.8
2022-10-08T08:28:34.000Z,79.5
2022-10-08T08:29:51.000Z,81
2022-10-08T08:31:07.000Z,83.2
2022-10-08T08:32:23.000Z,82.8
2022-10-08T08:33:39.000Z,80.8
2022-10-08T08:34:56.000Z,81.7
2022-10-08T08:36:12.000Z,82.4
2022-10-08T08:37:28.000Z,81.4
2022-10-08T08:40:01.000Z,80.7
2022-10-08T08:41:17.000Z,77.2
2022-10-08T08:42:33.000Z,79.6
2022-10-08T08:43:48.000Z,79.2
2022-10-08T08:45:04.000Z,79.1
2022-10-08T08:46:21.000Z,77.3
2022-10-08T08:47:37.000Z,75.4
2022-10-08T08:48:53.000Z,72
2022-10-08T08:50:09.000Z,74.2
2022-10-08T08:51:26.000Z,70
2022-10-08T08:52:42.000Z,70
2022-10-08T08:53:58.000Z,69.7
2022-10-08T08:55:13.000Z,69.7
2022-10-08T08:56:29.000Z,66.3
2022-10-08T08:57:45.000Z,68.8
2022-10-08T08:59:01.000Z,69.7
2022-10-08T09:00:17.000Z,71.3
2022-10-08T09:01:34.000Z,69.3
2022-10-08T09:02:50.000Z,67.3
2022-10-08T09:05:22.000Z,69.9
2022-10-08T09:06:38.000Z,71.6
2022-10-08T09:07:55.000Z,73.4
2022-10-08T09:09:11.000Z,72.2
2022-10-08T09:10:27.000Z,74.4
2022-10-08T09:11:43.000Z,76.7
2022-10-08T09:12:59.000Z,75.5
2022-10-08T09:14:15.000Z,75.1
2022-10-08T09:15:31.000Z,74.1
2022-10-08T09:19:20.000Z,67.6
2022-10-08T09:20:35.000Z,69
2022-10-08T09:21:50.000Z,65
2022-10-08T09:23:07.000Z,60.7
2022-10-08T09:24:23.000Z,62.4
2022-10-08T09:25:39.000Z,63.8
2022-10-08T09:26:55.000Z,60.7
2022-10-08T09:28:12.000Z,64.9
2022-10-08T09:30:44.000Z,63.8
2022-10-08T09:32:00.000Z,61.9
2022-10-08T09:33:17.000Z,65.1
2022-10-08T09:34:33.000Z,66.2
2022-10-08T09:35:49.000Z,62.2
2022-10-08T09:37:04.000Z,61.4
2022-10-08T09:38:20.000Z,63.7
2022-10-08T09:39:37.000Z,64.3
2022-10-08T09:40:53.000Z,65.5
2022-10-08T09:43:25.000Z,68
2022-10-08T09:44:42.000Z,67.5
2022-10-08T09:45:58.000Z,67.8
2022-10-08T09:47:14.000Z,67.1
2022-10-08T09:48:30.000Z,65.5
2022-10-08T09:49:47.000Z,67.1
2022-10-08T09:51:03.000Z,64.7
2022-10-08T09:52:19.000Z,64.7
2022-10-08T09:53:34.000Z,65.8
2022-10-08T09:54:51.000Z,61.9
2022-10-08T09:56:07.000Z,60.3
2022-10-08T09:57:22.000Z,57
2022-10-08T09:58:37.000Z,60
2022-10-08T09:59:54.000Z,62.5
2022-10-08T10:01:10.000Z,62.2
2022-10-08T10:02:26.000Z,62.4
2022-10-08T10:03:42.000Z,58
2022-10-08T10:04:58.000Z,58.2
2022-10-08T10:06:15.000Z,58.1
2022-10-08T10:07:31.000Z,57.3
2022-10-08T10:08:47.000Z,54.1
2022-10-08T10:10:03.000Z,53.2
2022-10-08T10:11:19.000Z,56.1
2022-10-08T10:12:34.000Z,59.4
2022-10-08T10:15:06.000Z,57.9
2022-10-08T10:16:23.000Z,58.3
2022-10-08T10:17:39.000Z,56
2022-10-08T10:18:55.000Z,51.1
2022-10-08T10:21:28.000Z,47.4
2022-10-08T10:22:44.000Z,46
2022-10-08T10:24:00.000Z,46
2022-10-08T10:25:16.000Z,46.7
2022-10-08T10:26:32.000Z,44.6
2022-10-08T10:27:48.000Z,47.6
2022-10-08T10:29:03.000Z,46.8
2022-10-08T10:30:19.000Z,47.8
2022-10-08T10:31:35.000Z,46.5
2022-10-08T10:34:08.000Z,44.4
2022-10-08T10:35:24.000Z,44
2022-10-08T10:36:40.000Z,45.7
2022-10-08T10:37:57.000Z,48.3
2022-10-08T10:39:13.000Z,53.2
2022-10-08T10:40:29.000Z,53.2
2022-10-08T10:41:45.000Z,56.4
2022-10-08T10:43:02.000Z,54.4
2022-10-08T10:44:18.000Z,47.4
2022-10-08T10:45:33.000Z,43.8
2022-10-08T10:46:49.000Z,41.7
2022-10-08T10:48:06.000Z,44.2
2022-10-08T10:49:22.000Z,43.4
2022-10-08T10:50:38.000Z,41.7
2022-10-08T10:51:54.000Z,43.2
2022-10-08T10:53:10.000Z,43.2
2022-10-08T10:54:27.000Z,42.4
2022-10-08T10:55:42.000Z,39.8
2022-10-08T10:56:57.000Z,42.1
2022-10-08T10:59:30.000Z,48.6
2022-10-08T11:00:46.000Z,50.6
2022-10-08T11:02:02.000Z,52
2022-10-08T11:03:18.000Z,53.4
2022-10-08T11:04:35.000Z,58.5
2022-10-08T11:05:51.000Z,63.9
2022-10-08T11:07:07.000Z,67.2
2022-10-08T11:08:23.000Z,67.5
2022-10-08T11:09:40.000Z,70.6
2022-10-08T11:10:56.000Z,73
2022-10-08T11:12:12.000Z,73.9
2022-10-08T11:13:27.000Z,74.2
2022-10-08T11:14:43.000Z,72.2
2022-10-08T11:16:00.000Z,74.4
2022-10-08T11:17:16.000Z,73.9
2022-10-08T11:18:32.000Z,74.8
2022-10-08T11:19:48.000Z,73.1
2022-10-08T11:21:05.000Z,72.8
2022-10-08T11:22:21.000Z,72.2
2022-10-08T11:24:53.000Z,72.4
2022-10-08T11:26:10.000Z,72.7
2022-10-08T11:27:26.000Z,72.6
2022-10-08T11:28:42.000Z,73.7
2022-10-08T11:29:58.000Z,72.6
2022-10-08T11:31:14.000Z,71.2
2022-10-08T11:32:30.000Z,66.1
2022-10-08T11:33:46.000Z,60.2
2022-10-08T11:35:02.000Z,57.7
2022-10-08T11:40:07.000Z,48.8
2022-10-08T11:41:22.000Z,47.5
2022-10-08T11:42:38.000Z,47.6
2022-10-08T11:43:54.000Z,46.9
2022-10-08T11:45:10.000Z,45
2022-10-08T11:46:26.000Z,45.9
2022-10-08T11:47:43.000Z,45.6
2022-10-08T11:48:59.000Z,44.7
2022-10-08T11:50:15.000Z,46.6
2022-10-08T11:51:31.000Z,44.1
2022-10-08T11:52:48.000Z,45.2
2022-10-08T11:54:04.000Z,45
2022-10-08T11:55:19.000Z,46.1
2022-10-08T11:56:34.000Z,50.2
2022-10-08T11:57:50.000Z,46.9
2022-10-08T11:59:07.000Z,44.4
2022-10-08T12:00:23.000Z,42.4
2022-10-08T12:02:55.000Z,39.9
2022-10-08T12:04:12.000Z,41.8
2022-10-08T12:05:28.000Z,45.8
2022-10-08T12:06:44.000Z,45.1
2022-10-08T12:08:00.000Z,42.5
2022-10-08T12:09:17.000Z,39.9
2022-10-08T12:10:33.000Z,42.4
2022-10-08T12:11:49.000Z,42.2
2022-10-08T12:13:04.000Z,41.8
2022-10-08T12:15:37.000Z,39.2
2022-10-08T12:16:52.000Z,38.7
2022-10-08T12:18:07.000Z,41.3
2022-10-08T12:19:24.000Z,43.8
2022-10-08T12:20:40.000Z,45
2022-10-08T12:21:56.000Z,42.6
2022-10-08T12:23:12.000Z,44.8
2022-10-08T12:24:28.000Z,42
2022-10-08T12:25:45.000Z,45.2
2022-10-08T12:27:01.000Z,44.8
2022-10-08T12:28:17.000Z,45.2
2022-10-08T12:29:33.000Z,43.8
2022-10-08T12:30:49.000Z,41.6
2022-10-08T12:32:04.000Z,40.7
2022-10-08T12:33:20.000Z,42.4
2022-10-08T12:34:36.000Z,45.3
2022-10-08T12:35:53.000Z,46.3
2022-10-08T12:37:09.000Z,44.7
2022-10-08T12:38:25.000Z,42.2
2022-10-08T12:40:58.000Z,38.3
2022-10-08T12:42:14.000Z,38.8
2022-10-08T12:43:30.000Z,38.3
2022-10-08T12:44:46.000Z,39.5
2022-10-08T12:46:02.000Z,38.4
2022-10-08T12:47:19.000Z,37.6
2022-10-08T12:48:34.000Z,36.7
2022-10-08T12:49:50.000Z,37.3
2022-10-08T12:51:06.000Z,36.7
2022-10-08T12:53:39.000Z,38
2022-10-08T12:54:54.000Z,38.6
2022-10-08T12:56:09.000Z,37.9
2022-10-08T12:57:26.000Z,38.1
2022-10-08T12:58:42.000Z,38
2022-10-08T12:59:58.000Z,37.7
2022-10-08T13:01:14.000Z,38.5
2022-10-08T13:02:31.000Z,38.1
2022-10-08T13:03:47.000Z,39.7
2022-10-08T13:05:03.000Z,38.8
2022-10-08T13:06:19.000Z,37.5
2022-10-08T13:07:36.000Z,36.3
2022-10-08T13:08:51.000Z,37
2022-10-08T13:10:06.000Z,36.9
2022-10-08T13:11:22.000Z,39.2
2022-10-08T13:12:39.000Z,41.2
2022-10-08T13:13:55.000Z,43.5
2022-10-08T13:15:11.000Z,44
2022-10-08T13:16:27.000Z,45.7
2022-10-08T13:19:00.000Z,47
2022-10-08T13:20:16.000Z,46.5
2022-10-08T13:21:32.000Z,47.6
2022-10-08T13:22:48.000Z,46
2022-10-08T13:24:05.000Z,45.2
2022-10-08T13:25:21.000Z,44.6
2022-10-08T13:26:36.000Z,45.2
2022-10-08T13:27:52.000Z,45.3
2022-10-08T13:29:09.000Z,44.4
2022-10-08T13:31:41.000Z,43.9
2022-10-08T13:32:56.000Z,44
2022-10-08T13:35:28.000Z,49
2022-10-08T13:36:44.000Z,48.9
2022-10-08T13:38:00.000Z,48.4
2022-10-08T13:39:16.000Z,49.3
2022-10-08T13:40:33.000Z,51
2022-10-08T13:41:49.000Z,50.7
2022-10-08T13:44:21.000Z,51.3
2022-10-08T13:45:38.000Z,51.3
2022-10-08T13:46:54.000Z,51.4
2022-10-08T13:48:10.000Z,52.8
2022-10-08T13:50:43.000Z,53.8
2022-10-08T13:51:58.000Z,57.2
2022-10-08T13:53:13.000Z,58.3
2022-10-08T13:54:29.000Z,58.6
2022-10-08T13:57:02.000Z,58
2022-10-08T13:58:18.000Z,58.7
2022-10-08T13:59:34.000Z,58.3
2022-10-08T14:00:51.000Z,57.2
2022-10-08T14:02:07.000Z,58.2
2022-10-08T14:03:23.000Z,58.6
2022-10-08T14:04:39.000Z,59
2022-10-08T14:05:55.000Z,59.1
2022-10-08T14:07:12.000Z,58.6
2022-10-08T14:09:44.000Z,60
2022-10-08T14:11:00.000Z,59.8
2022-10-08T14:12:16.000Z,60.4
2022-10-08T14:13:32.000Z,60.3
2022-10-08T14:14:48.000Z,59
2022-10-08T14:16:04.000Z,59
2022-10-08T14:17:21.000Z,59.1
2022-10-08T14:18:37.000Z,58.7
2022-10-08T14:19:53.000Z,59
2022-10-08T14:21:09.000Z,59.3
2022-10-08T14:22:25.000Z,59.9
2022-10-08T14:23:41.000Z,60
2022-10-08T14:24:56.000Z,60.7
2022-10-08T14:26:12.000Z,59.8
2022-10-08T14:27:28.000Z,59.5
2022-10-08T14:28:45.000Z,59.6
2022-10-08T14:30:01.000Z,60.4
2022-10-08T14:31:17.000Z,59.7
2022-10-08T14:32:33.000Z,60.3
2022-10-08T14:33:50.000Z,60
2022-10-08T14:35:06.000Z,58.3
2022-10-08T14:36:22.000Z,57.1
2022-10-08T14:37:37.000Z,56.8
2022-10-08T14:38:53.000Z,57.5
2022-10-08T14:40:09.000Z,57.8
2022-10-08T14:41:25.000Z,58
2022-10-08T14:42:41.000Z,57.9
2022-10-08T14:43:58.000Z,57.5
2022-10-08T14:45:14.000Z,57.7
2022-10-08T14:49:02.000Z,57.4
2022-10-08T14:50:19.000Z,57.8
2022-10-08T14:51:35.000Z,57.7
2022-10-08T14:52:51.000Z,57.6
2022-10-08T14:54:06.000Z,57.1
2022-10-08T14:55:22.000Z,57.1
2022-10-08T14:56:38.000Z,57.5
2022-10-08T14:57:54.000Z,58.8
2022-10-08T14:59:10.000Z,58.8
2022-10-08T15:00:27.000Z,58.6
2022-10-08T15:01:43.000Z,59.1
2022-10-08T15:02:59.000Z,58.2
2022-10-08T15:04:15.000Z,58.7
2022-10-08T15:05:32.000Z,59.5
2022-10-08T15:06:48.000Z,59.5
2022-10-08T15:08:03.000Z,59.4
2022-10-08T15:09:18.000Z,59.2
2022-10-08T15:10:35.000Z,58.9
2022-10-08T15:11:51.000Z,57.9
2022-10-08T15:13:07.000Z,58.8
2022-10-08T15:14:23.000Z,58.6
2022-10-08T15:16:56.000Z,57.9
2022-10-08T15:18:12.000Z,58.1
2022-10-08T15:19:28.000Z,58.3
2022-10-08T15:20:44.000Z,58.3
2022-10-08T15:22:01.000Z,58.8
2022-10-08T15:23:17.000Z,59.3
2022-10-08T15:25:49.000Z,59.6
2022-10-08T15:27:05.000Z,60.1
2022-10-08T15:28:20.000Z,60
2022-10-08T15:29:36.000Z,60.2
2022-10-08T15:30:52.000Z,60.2
2022-10-08T15:32:09.000Z,60.6
2022-10-08T15:33:25.000Z,60.6
2022-10-08T15:34:41.000Z,60.5
2022-10-08T15:35:57.000Z,60.5
2022-10-08T15:37:13.000Z,60.1
2022-10-08T15:38:30.000Z,60.7
2022-10-08T15:39:46.000Z,61.2
2022-10-08T15:41:01.000Z,61
2022-10-08T15:42:16.000Z,60.5
2022-10-08T15:43:33.000Z,60.7
2022-10-08T15:44:49.000Z,61.1
2022-10-08T15:46:05.000Z,61.5
2022-10-08T15:47:21.000Z,62.9
2022-10-08T15:48:38.000Z,64.1
2022-10-08T15:49:54.000Z,64
2022-10-08T15:51:10.000Z,63.9
2022-10-08T15:52:26.000Z,64.2
2022-10-08T15:53:43.000Z,63.8
2022-10-08T15:54:59.000Z,64.4
2022-10-08T15:56:15.000Z,64.6
2022-10-08T15:57:31.000Z,64.4
2022-10-08T15:58:46.000Z,64.2
2022-10-08T16:00:03.000Z,64
2022-10-08T16:01:19.000Z,63.9
2022-10-08T16:03:51.000Z,64.4
2022-10-08T16:05:08.000Z,64.4
2022-10-08T16:06:24.000Z,64.4
2022-10-08T16:07:40.000Z,64.7
2022-10-08T16:08:56.000Z,65.5
2022-10-08T16:10:13.000Z,65.8
2022-10-08T16:11:29.000Z,66.1
2022-10-08T16:12:45.000Z,65.7
2022-10-08T16:14:01.000Z,65.9
2022-10-08T16:15:17.000Z,65.7
2022-10-08T16:16:33.000Z,65.9
2022-10-08T16:17:49.000Z,66.3
2022-10-08T16:19:05.000Z,66.3
2022-10-08T16:20:21.000Z,66.3
2022-10-08T16:21:38.000Z,66.9
2022-10-08T16:22:54.000Z,66.6
2022-10-08T16:24:10.000Z,66.7
2022-10-08T16:25:26.000Z,66.3
2022-10-08T16:27:59.000Z,67.1
2022-10-08T16:29:15.000Z,67.6
2022-10-08T16:30:31.000Z,67.8
2022-10-08T16:31:47.000Z,67.8
2022-10-08T16:33:03.000Z,68.5
2022-10-08T16:34:19.000Z,68.5
2022-10-08T16:35:35.000Z,68.8
2022-10-08T16:36:51.000Z,68.3
2022-10-08T16:38:08.000Z,69
2022-10-08T16:39:24.000Z,68.7
2022-10-08T16:40:40.000Z,68.7
2022-10-08T16:41:56.000Z,69
2022-10-08T16:43:13.000Z,69.3
2022-10-08T16:44:29.000Z,70.2
2022-10-08T16:45:45.000Z,71.1
2022-10-08T16:47:01.000Z,71.6
2022-10-08T16:49:33.000Z,71.9
2022-10-08T16:50:49.000Z,71.9
2022-10-08T16:52:05.000Z,71.8
2022-10-08T16:53:22.000Z,72.7
2022-10-08T16:54:38.000Z,73.3
2022-10-08T16:55:54.000Z,73.8
2022-10-08T16:57:10.000Z,73.8
2022-10-08T16:58:26.000Z,73.8
2022-10-08T16:59:43.000Z,73.6
2022-10-08T17:00:59.000Z,73.5
2022-10-08T17:02:15.000Z,73.7
2022-10-08T17:03:31.000Z,73.6
2022-10-08T17:04:47.000Z,73.5
2022-10-08T17:06:03.000Z,73.7
2022-10-08T17:07:19.000Z,74.1
2022-10-08T17:08:35.000Z,74.5
2022-10-08T17:09:52.000Z,74.9
2022-10-08T17:11:08.000Z,75
2022-10-08T17:12:24.000Z,74.8
2022-10-08T17:13:40.000Z,75.1
2022-10-08T17:14:57.000Z,75.8
2022-10-08T17:16:13.000Z,76
2022-10-08T17:17:29.000Z,76.2
2022-10-08T17:18:45.000Z,76
2022-10-08T17:20:01.000Z,76.4
2022-10-08T17:21:17.000Z,76.5
2022-10-08T17:22:33.000Z,76.7
2022-10-08T17:25:06.000Z,76.5
2022-10-08T17:26:22.000Z,76.5
2022-10-08T17:27:38.000Z,76.7
2022-10-08T17:28:54.000Z,76.6
2022-10-08T17:30:11.000Z,76.9
2022-10-08T17:32:43.000Z,76.6
2022-10-08T17:34:00.000Z,76.9
2022-10-08T17:35:16.000Z,76.9
2022-10-08T17:36:32.000Z,77.5
2022-10-08T17:37:47.000Z,77.7
2022-10-08T17:39:04.000Z,78
2022-10-08T17:40:20.000Z,78.1
2022-10-08T17:41:36.000Z,78.2
2022-10-08T17:42:53.000Z,78.4
2022-10-08T17:46:41.000Z,79.2
2022-10-08T17:47:57.000Z,79.5
2022-10-08T17:49:12.000Z,79.9
2022-10-08T17:50:28.000Z,80
2022-10-08T17:51:45.000Z,79.9
2022-10-08T17:53:01.000Z,79.7
2022-10-08T17:54:17.000Z,79.3
2022-10-08T17:55:34.000Z,79.7
2022-10-08T17:56:50.000Z,79.9
2022-10-08T17:58:06.000Z,80.2
2022-10-08T17:59:22.000Z,80.2
2022-10-08T18:00:39.000Z,80.3
2022-10-08T18:01:54.000Z,80.2
2022-10-08T18:03:09.000Z,80.4
2022-10-08T18:04:26.000Z,80.2
2022-10-08T18:05:42.000Z,80.1
2022-10-08T18:06:57.000Z,80
2022-10-08T18:08:13.000Z,79.9
2022-10-08T18:10:46.000Z,80
2022-10-08T18:12:02.000Z,79.9
2022-10-08T18:13:19.000Z,79.7
2022-10-08T18:14:35.000Z,80.1
2022-10-08T18:15:51.000Z,80.5
2022-10-08T18:17:07.000Z,80.6
2022-10-08T18:18:24.000Z,81
2022-10-08T18:19:40.000Z,81
2022-10-08T18:20:56.000Z,80.5
2022-10-08T18:23:29.000Z,80.2
2022-10-08T18:24:44.000Z,80.5
2022-10-08T18:26:00.000Z,80.8
2022-10-08T18:27:16.000Z,80.8